Gilze Rijen Air Base

EHGR · 北布拉班特省, 荷兰

罗盘
风向 的 风向 260° Gilze Rijen Air Base 10/28
风: 5 kt, 2 beaufort

5 kt

2 kt
改变
0 ft 1.000 2.000 3.000 4.000 5.000
Cloud Cloud
FEW 1.500
Cloud Cloud Cloud Cloud Cloud Cloud
BKN 2.200
Cloud Cloud Cloud Cloud Cloud Cloud Cloud Cloud
OVC 2.500
METAR EHGR 170326Z AUTO 26005KT 5000 SHRA FEW015CB BKN022 OVC025 05/05 Q1012 WHT

METAR Gilze Rijen Air Base - EHGR/GLZ

Gilze Rijen Air Base是,荷兰中的中型机场。 该机场位于纬度51,56573和经度4,93469。 该机场有2条跑道: 10/28 和 2/20. 本场的ICAO机场代码为EHGR。 该机场的IATA代码为GLZ。 机场在Amsterdam FIR中。

该航空气象观测是针对Gilze Rijen Air Base在2024年4月17日 05:26, 当地时间进行的。

机场观察

风向为260°,速度为5 kt。

可见度为5 km。

有几云 积雨云在1.500 ft的高度, 碎云在2.200 ft的高度 和 乌云密布在2.500 ft的高度。 破损或更高的上限为2.200 ft。

当前天气为阵雨 雨。 温度为5 °C,阵风为1 °C。 露点为5 °C,相对湿度为100%。 海平面上的气压为1012 hPa (QNH)。

白天

今天,太阳从06:38升起,在20:40降落。 这适用于Gilze Rijen Air Base,世界夏令时可能有所不同。 当地时间与世界标准时间之间的时差为+2 小时。 夏令时目前正在进行中。

公司介绍

在这个机场,你可以找到飞行俱乐部。 这个机场上的公司有Drone Fotograaf Nederland, Koninklijke Luchtmacht Historische Vlucht 和 GLC Illustrious。

体会

到Vliegles.nl去找飞行课程,跳伞和其他飞行体验。 浏览页面,了解Gilze Rijen Air Base附近所有可用的活动。 你也可以使用搜索功能来寻找你所在地附近的特定飞行课程、跳伞或其他飞行体验。

跑道

Id 标题 侧风 逆风 侧风 %
10/28 100°-280° 2 kt 5 kt 34 %
2/20 017°-197° 4 kt 2 kt 89 %

逆风成分最大的方向会被突出显示,并用于横风计算。 这并不一定意味着这个方向在使用。

乌云

1.500 ft FEW 几云 积雨云
2.200 ft BKN 碎云
2.500 ft OVC 乌云密布

温度 & 天气

天气 阵雨 雨
温度 5 °C
露点 5 °C
相对湿度 100%
风寒 1 °C
Kp-index 1 (0-9)

白天

日出
06:38 (56m)
中午
13:39
日落
20:40

小工具

你想在你的网站上有一个关于Gilze Rijen Air Base的当前航空天气(METAR)的小部件吗?

显示HTML代码
报告变更